sensor_id;sensor_type;location;lat;lon;timestamp;P1;durP1;ratioP1;P2;durP2;ratioP2
56233;SDS011;42141;53.240;6.580;2023-06-24T00:02:01;7.18;;;5.47;;
56233;SDS011;42141;53.240;6.580;2023-06-24T00:04:27;7.40;;;5.65;;
56233;SDS011;42141;53.240;6.580;2023-06-24T00:06:53;7.70;;;6.30;;
56233;SDS011;42141;53.240;6.580;2023-06-24T00:09:23;9.73;;;5.72;;
56233;SDS011;42141;53.240;6.580;2023-06-24T00:11:50;10.93;;;5.45;;
56233;SDS011;42141;53.240;6.580;2023-06-24T00:14:15;8.63;;;5.38;;
56233;SDS011;42141;53.240;6.580;2023-06-24T00:16:41;9.38;;;6.22;;
56233;SDS011;42141;53.240;6.580;2023-06-24T00:19:07;7.22;;;5.75;;
56233;SDS011;42141;53.240;6.580;2023-06-24T00:21:33;6.88;;;5.18;;
56233;SDS011;42141;53.240;6.580;2023-06-24T00:23:59;8.93;;;5.32;;
56233;SDS011;42141;53.240;6.580;2023-06-24T00:26:29;9.25;;;5.90;;
56233;SDS011;42141;53.240;6.580;2023-06-24T00:28:57;9.05;;;5.63;;
56233;SDS011;42141;53.240;6.580;2023-06-24T00:31:23;6.97;;;5.10;;
56233;SDS011;42141;53.240;6.580;2023-06-24T00:33:49;7.20;;;5.80;;
56233;SDS011;42141;53.240;6.580;2023-06-24T00:36:17;9.82;;;6.68;;
56233;SDS011;42141;53.240;6.580;2023-06-24T00:38:43;5.70;;;4.78;;
56233;SDS011;42141;53.240;6.580;2023-06-24T00:41:09;9.90;;;5.22;;
56233;SDS011;42141;53.240;6.580;2023-06-24T00:43:35;8.38;;;5.60;;
56233;SDS011;42141;53.240;6.580;2023-06-24T00:46:01;6.60;;;5.90;;
56233;SDS011;42141;53.240;6.580;2023-06-24T00:48:27;7.00;;;5.68;;
56233;SDS011;42141;53.240;6.580;2023-06-24T00:50:53;5.45;;;4.65;;
56233;SDS011;42141;53.240;6.580;2023-06-24T00:53:19;9.88;;;5.60;;
56233;SDS011;42141;53.240;6.580;2023-06-24T00:55:50;10.57;;;5.85;;
56233;SDS011;42141;53.240;6.580;2023-06-24T00:58:17;5.95;;;5.20;;
56233;SDS011;42141;53.240;6.580;2023-06-24T01:00:46;7.72;;;5.18;;
56233;SDS011;42141;53.240;6.580;2023-06-24T01:03:13;7.80;;;5.65;;
56233;SDS011;42141;53.240;6.580;2023-06-24T01:05:39;6.43;;;5.38;;
56233;SDS011;42141;53.240;6.580;2023-06-24T01:08:11;8.48;;;5.05;;
56233;SDS011;42141;53.240;6.580;2023-06-24T01:10:40;8.30;;;5.93;;
56233;SDS011;42141;53.240;6.580;2023-06-24T01:13:06;6.38;;;5.20;;
56233;SDS011;42141;53.240;6.580;2023-06-24T01:15:32;8.38;;;5.35;;
56233;SDS011;42141;53.240;6.580;2023-06-24T01:20:59;9.15;;;6.82;;
56233;SDS011;42141;53.240;6.580;2023-06-24T01:26:52;12.20;;;8.80;;
56233;SDS011;42141;53.240;6.580;2023-06-24T01:32:54;12.20;;;7.78;;
56233;SDS011;42141;53.240;6.580;2023-06-24T01:35:25;9.80;;;7.40;;
56233;SDS011;42141;53.240;6.580;2023-06-24T01:37:55;9.43;;;6.47;;
56233;SDS011;42141;53.240;6.580;2023-06-24T01:42:59;11.05;;;6.65;;
56233;SDS011;42141;53.240;6.580;2023-06-24T01:45:28;8.57;;;6.32;;
56233;SDS011;42141;53.240;6.580;2023-06-24T01:50:34;8.82;;;6.50;;
56233;SDS011;42141;53.240;6.580;2023-06-24T01:53:02;10.40;;;7.50;;
56233;SDS011;42141;53.240;6.580;2023-06-24T01:55:30;9.57;;;7.03;;
56233;SDS011;42141;53.240;6.580;2023-06-24T01:57:57;9.95;;;7.65;;
56233;SDS011;42141;53.240;6.580;2023-06-24T02:00:24;11.60;;;7.85;;
56233;SDS011;42141;53.240;6.580;2023-06-24T02:02:51;13.57;;;8.38;;
56233;SDS011;42141;53.240;6.580;2023-06-24T02:05:19;10.10;;;8.13;;
56233;SDS011;42141;53.240;6.580;2023-06-24T02:07:49;12.32;;;8.57;;
56233;SDS011;42141;53.240;6.580;2023-06-24T02:10:18;11.77;;;7.63;;
56233;SDS011;42141;53.240;6.580;2023-06-24T02:12:45;13.82;;;9.10;;
56233;SDS011;42141;53.240;6.580;2023-06-24T02:15:13;13.40;;;8.60;;
56233;SDS011;42141;53.240;6.580;2023-06-24T02:17:39;19.42;;;9.65;;
56233;SDS011;42141;53.240;6.580;2023-06-24T02:20:06;13.23;;;9.32;;
56233;SDS011;42141;53.240;6.580;2023-06-24T02:22:36;13.18;;;10.02;;
56233;SDS011;42141;53.240;6.580;2023-06-24T02:25:04;11.52;;;8.70;;
56233;SDS011;42141;53.240;6.580;2023-06-24T02:27:32;11.15;;;8.07;;
56233;SDS011;42141;53.240;6.580;2023-06-24T02:30:00;12.80;;;9.05;;
56233;SDS011;42141;53.240;6.580;2023-06-24T02:32:27;13.85;;;8.07;;
56233;SDS011;42141;53.240;6.580;2023-06-24T02:34:53;13.25;;;9.07;;
56233;SDS011;42141;53.240;6.580;2023-06-24T02:37:18;10.50;;;8.18;;
56233;SDS011;42141;53.240;6.580;2023-06-24T02:39:44;16.15;;;8.38;;
56233;SDS011;42141;53.240;6.580;2023-06-24T02:42:10;15.95;;;9.50;;
56233;SDS011;42141;53.240;6.580;2023-06-24T02:44:37;11.82;;;8.77;;
56233;SDS011;42141;53.240;6.580;2023-06-24T02:47:07;17.35;;;9.27;;
56233;SDS011;42141;53.240;6.580;2023-06-24T02:49:36;12.70;;;9.52;;
56233;SDS011;42141;53.240;6.580;2023-06-24T02:52:03;13.98;;;9.02;;
56233;SDS011;42141;53.240;6.580;2023-06-24T02:54:30;10.98;;;9.05;;
56233;SDS011;42141;53.240;6.580;2023-06-24T02:56:56;10.82;;;8.43;;
56233;SDS011;42141;53.240;6.580;2023-06-24T02:59:23;15.73;;;9.40;;
56233;SDS011;42141;53.240;6.580;2023-06-24T03:01:50;11.63;;;8.35;;
56233;SDS011;42141;53.240;6.580;2023-06-24T03:04:17;12.75;;;8.57;;
56233;SDS011;42141;53.240;6.580;2023-06-24T03:06:43;13.20;;;9.30;;
56233;SDS011;42141;53.240;6.580;2023-06-24T03:09:10;13.45;;;9.90;;
56233;SDS011;42141;53.240;6.580;2023-06-24T03:11:42;12.45;;;9.65;;
56233;SDS011;42141;53.240;6.580;2023-06-24T03:14:09;13.70;;;10.52;;
56233;SDS011;42141;53.240;6.580;2023-06-24T03:16:35;15.18;;;10.57;;
56233;SDS011;42141;53.240;6.580;2023-06-24T03:19:03;17.02;;;10.85;;
56233;SDS011;42141;53.240;6.580;2023-06-24T03:21:29;14.25;;;9.70;;
56233;SDS011;42141;53.240;6.580;2023-06-24T03:23:55;14.73;;;10.07;;
56233;SDS011;42141;53.240;6.580;2023-06-24T03:26:21;13.82;;;9.90;;
56233;SDS011;42141;53.240;6.580;2023-06-24T03:28:47;14.98;;;9.13;;
56233;SDS011;42141;53.240;6.580;2023-06-24T03:31:14;12.55;;;9.75;;
56233;SDS011;42141;53.240;6.580;2023-06-24T03:33:42;13.18;;;10.23;;
56233;SDS011;42141;53.240;6.580;2023-06-24T03:36:10;14.43;;;9.75;;
56233;SDS011;42141;53.240;6.580;2023-06-24T03:38:36;14.20;;;8.52;;
56233;SDS011;42141;53.240;6.580;2023-06-24T03:41:02;11.93;;;8.73;;
56233;SDS011;42141;53.240;6.580;2023-06-24T03:43:27;10.13;;;8.18;;
56233;SDS011;42141;53.240;6.580;2023-06-24T03:45:53;13.55;;;8.75;;
56233;SDS011;42141;53.240;6.580;2023-06-24T03:48:20;11.88;;;8.63;;
56233;SDS011;42141;53.240;6.580;2023-06-24T03:50:45;13.38;;;7.82;;
56233;SDS011;42141;53.240;6.580;2023-06-24T03:53:11;12.50;;;8.40;;
56233;SDS011;42141;53.240;6.580;2023-06-24T03:55:37;10.35;;;7.07;;
56233;SDS011;42141;53.240;6.580;2023-06-24T03:58:02;11.98;;;7.82;;
56233;SDS011;42141;53.240;6.580;2023-06-24T04:00:28;11.90;;;8.13;;
56233;SDS011;42141;53.240;6.580;2023-06-24T04:02:54;11.15;;;8.02;;
56233;SDS011;42141;53.240;6.580;2023-06-24T04:05:20;15.05;;;8.00;;
56233;SDS011;42141;53.240;6.580;2023-06-24T04:07:46;11.73;;;6.93;;
56233;SDS011;42141;53.240;6.580;2023-06-24T04:10:12;8.82;;;7.25;;
56233;SDS011;42141;53.240;6.580;2023-06-24T04:12:38;10.48;;;6.95;;
56233;SDS011;42141;53.240;6.580;2023-06-24T04:15:04;10.35;;;7.25;;
56233;SDS011;42141;53.240;6.580;2023-06-24T04:17:30;8.60;;;5.95;;
56233;SDS011;42141;53.240;6.580;2023-06-24T04:19:56;11.00;;;7.35;;
56233;SDS011;42141;53.240;6.580;2023-06-24T04:22:23;9.27;;;6.65;;
56233;SDS011;42141;53.240;6.580;2023-06-24T04:24:50;10.57;;;6.90;;
56233;SDS011;42141;53.240;6.580;2023-06-24T04:27:15;7.43;;;5.75;;
56233;SDS011;42141;53.240;6.580;2023-06-24T04:29:41;12.15;;;6.38;;
56233;SDS011;42141;53.240;6.580;2023-06-24T04:32:07;11.20;;;6.95;;
56233;SDS011;42141;53.240;6.580;2023-06-24T04:34:33;8.52;;;6.15;;
56233;SDS011;42141;53.240;6.580;2023-06-24T04:36:58;7.90;;;5.70;;
56233;SDS011;42141;53.240;6.580;2023-06-24T04:39:24;8.25;;;4.97;;
56233;SDS011;42141;53.240;6.580;2023-06-24T04:41:49;12.57;;;6.47;;
56233;SDS011;42141;53.240;6.580;2023-06-24T04:44:15;7.00;;;5.57;;
56233;SDS011;42141;53.240;6.580;2023-06-24T04:46:41;8.15;;;5.05;;
56233;SDS011;42141;53.240;6.580;2023-06-24T04:49:07;6.95;;;4.93;;
56233;SDS011;42141;53.240;6.580;2023-06-24T04:51:33;8.13;;;5.28;;
56233;SDS011;42141;53.240;6.580;2023-06-24T04:53:59;10.35;;;5.40;;
56233;SDS011;42141;53.240;6.580;2023-06-24T04:56:25;5.85;;;5.22;;
56233;SDS011;42141;53.240;6.580;2023-06-24T04:58:51;7.05;;;5.18;;
56233;SDS011;42141;53.240;6.580;2023-06-24T05:01:17;9.13;;;5.03;;
56233;SDS011;42141;53.240;6.580;2023-06-24T05:03:43;7.38;;;5.30;;
56233;SDS011;42141;53.240;6.580;2023-06-24T05:06:08;10.32;;;5.40;;
56233;SDS011;42141;53.240;6.580;2023-06-24T05:08:34;7.50;;;5.25;;
56233;SDS011;42141;53.240;6.580;2023-06-24T05:11:00;12.13;;;5.97;;
56233;SDS011;42141;53.240;6.580;2023-06-24T05:13:27;8.80;;;5.25;;
56233;SDS011;42141;53.240;6.580;2023-06-24T05:15:53;8.35;;;5.20;;
56233;SDS011;42141;53.240;6.580;2023-06-24T05:18:18;7.22;;;5.55;;
56233;SDS011;42141;53.240;6.580;2023-06-24T05:20:44;8.15;;;5.82;;
56233;SDS011;42141;53.240;6.580;2023-06-24T05:23:10;7.78;;;5.50;;
56233;SDS011;42141;53.240;6.580;2023-06-24T05:25:36;10.98;;;6.75;;
56233;SDS011;42141;53.240;6.580;2023-06-24T05:28:01;9.82;;;6.70;;
56233;SDS011;42141;53.240;6.580;2023-06-24T05:30:27;9.10;;;5.93;;
56233;SDS011;42141;53.240;6.580;2023-06-24T05:32:53;8.23;;;6.00;;
56233;SDS011;42141;53.240;6.580;2023-06-24T05:35:19;8.35;;;6.53;;
56233;SDS011;42141;53.240;6.580;2023-06-24T05:37:44;8.10;;;6.18;;
56233;SDS011;42141;53.240;6.580;2023-06-24T05:40:10;7.82;;;5.93;;
56233;SDS011;42141;53.240;6.580;2023-06-24T05:42:37;8.95;;;6.00;;
56233;SDS011;42141;53.240;6.580;2023-06-24T05:45:04;8.65;;;6.20;;
56233;SDS011;42141;53.240;6.580;2023-06-24T05:47:31;7.05;;;5.38;;
56233;SDS011;42141;53.240;6.580;2023-06-24T05:49:57;7.50;;;4.82;;
56233;SDS011;42141;53.240;6.580;2023-06-24T05:52:23;7.45;;;5.07;;
56233;SDS011;42141;53.240;6.580;2023-06-24T05:54:49;7.97;;;5.47;;
56233;SDS011;42141;53.240;6.580;2023-06-24T05:57:14;8.23;;;5.50;;
56233;SDS011;42141;53.240;6.580;2023-06-24T05:59:40;7.43;;;5.07;;
56233;SDS011;42141;53.240;6.580;2023-06-24T06:02:06;9.05;;;5.68;;
56233;SDS011;42141;53.240;6.580;2023-06-24T06:04:32;5.93;;;5.28;;
56233;SDS011;42141;53.240;6.580;2023-06-24T06:06:58;7.85;;;5.80;;
56233;SDS011;42141;53.240;6.580;2023-06-24T06:09:23;9.30;;;5.20;;
56233;SDS011;42141;53.240;6.580;2023-06-24T06:11:49;7.57;;;5.05;;
56233;SDS011;42141;53.240;6.580;2023-06-24T06:14:15;8.75;;;5.60;;
56233;SDS011;42141;53.240;6.580;2023-06-24T06:16:40;6.85;;;5.22;;
56233;SDS011;42141;53.240;6.580;2023-06-24T06:19:06;8.50;;;5.22;;
56233;SDS011;42141;53.240;6.580;2023-06-24T06:21:32;7.13;;;4.32;;
56233;SDS011;42141;53.240;6.580;2023-06-24T06:23:57;8.05;;;5.32;;
56233;SDS011;42141;53.240;6.580;2023-06-24T06:26:23;6.93;;;5.53;;
56233;SDS011;42141;53.240;6.580;2023-06-24T06:28:49;6.35;;;5.00;;
56233;SDS011;42141;53.240;6.580;2023-06-24T06:31:15;6.55;;;5.63;;
56233;SDS011;42141;53.240;6.580;2023-06-24T06:33:41;10.00;;;5.20;;
56233;SDS011;42141;53.240;6.580;2023-06-24T06:36:08;6.90;;;5.28;;
56233;SDS011;42141;53.240;6.580;2023-06-24T06:38:33;8.38;;;6.07;;
56233;SDS011;42141;53.240;6.580;2023-06-24T06:40:59;11.55;;;5.05;;
56233;SDS011;42141;53.240;6.580;2023-06-24T06:43:25;6.82;;;5.55;;
56233;SDS011;42141;53.240;6.580;2023-06-24T06:45:51;9.93;;;5.40;;
56233;SDS011;42141;53.240;6.580;2023-06-24T06:48:17;7.45;;;4.85;;
56233;SDS011;42141;53.240;6.580;2023-06-24T06:50:44;12.80;;;5.53;;
56233;SDS011;42141;53.240;6.580;2023-06-24T06:53:10;8.95;;;6.30;;
56233;SDS011;42141;53.240;6.580;2023-06-24T06:55:36;7.70;;;5.28;;
56233;SDS011;42141;53.240;6.580;2023-06-24T21:26:18;5.80;;;3.97;;
56233;SDS011;42141;53.240;6.580;2023-06-24T21:28:44;7.50;;;3.53;;
56233;SDS011;42141;53.240;6.580;2023-06-24T21:31:09;4.53;;;3.75;;
56233;SDS011;42141;53.240;6.580;2023-06-24T21:33:36;6.72;;;3.88;;
56233;SDS011;42141;53.240;6.580;2023-06-24T21:36:02;5.15;;;3.60;;
56233;SDS011;42141;53.240;6.580;2023-06-24T21:38:28;6.85;;;4.00;;
56233;SDS011;42141;53.240;6.580;2023-06-24T21:40:54;7.28;;;4.20;;
56233;SDS011;42141;53.240;6.580;2023-06-24T21:43:19;7.88;;;4.03;;
56233;SDS011;42141;53.240;6.580;2023-06-24T21:45:45;5.78;;;3.58;;
56233;SDS011;42141;53.240;6.580;2023-06-24T21:48:11;11.57;;;5.32;;
56233;SDS011;42141;53.240;6.580;2023-06-24T21:50:36;6.97;;;4.38;;
56233;SDS011;42141;53.240;6.580;2023-06-24T21:53:02;7.38;;;5.18;;
56233;SDS011;42141;53.240;6.580;2023-06-24T21:55:28;6.88;;;5.20;;
56233;SDS011;42141;53.240;6.580;2023-06-24T21:57:53;8.82;;;5.47;;
56233;SDS011;42141;53.240;6.580;2023-06-24T22:00:20;5.72;;;4.97;;
56233;SDS011;42141;53.240;6.580;2023-06-24T22:02:46;5.40;;;4.57;;
56233;SDS011;42141;53.240;6.580;2023-06-24T23:41:12;11.48;;;8.82;;
56233;SDS011;42141;53.240;6.580;2023-06-24T23:43:38;12.68;;;8.75;;
56233;SDS011;42141;53.240;6.580;2023-06-24T23:46:03;10.18;;;7.90;;
56233;SDS011;42141;53.240;6.580;2023-06-24T23:48:29;11.98;;;8.50;;
56233;SDS011;42141;53.240;6.580;2023-06-24T23:50:55;12.40;;;7.45;;
56233;SDS011;42141;53.240;6.580;2023-06-24T23:53:21;13.05;;;8.90;;
56233;SDS011;42141;53.240;6.580;2023-06-24T23:55:47;11.52;;;8.00;;
56233;SDS011;42141;53.240;6.580;2023-06-24T23:58:18;11.32;;;8.00;;
